Portada
METAR-TAF:

METAR-TAF

Aeropuertos :

Sindal, Dinamarca

latitud: 57-30N, longitud: 010-13E, altitud: 28 m

Observación

El informe se hizo hace 2 horas y 28 minutos, a las 12:50 UTC
Viento 20 kt del oeste con ráfagas de 31 kt
Temperatura 8°C
Humedad 71%
Presión 1008 hPa
Visibilidad 10 km o más
Escasas nubes a una altura de 1500 ft
Cielo nuboso a una altura de 8400 ft

METAR: EKSN 011250Z 27020G31KT 9999 FEW015 BKN084 08/03 Q1008

Hora: 17:18 (15:18 UTC)

Pronóstico

El informe se hizo hace 6 horas y 23 minutos, a las 08:55 UTC
Pronóstico válido del 01 a las 09 UTC al 01 a las 15 UTC
Viento 15 kt del oeste
Visibilidad 10 km o más
Escasas nubes a una altura de 1000 ft
Temporalmente
del 01 a las 09 UTC al 01 a las 15 UTC
Viento 18 kt del oeste con ráfagas de 30 kt

TAF: EKSN 010855Z 0109/0115 28015KT 9999 FEW010 TEMPO 0109/0115 27018G30KT

Observaciones y pronósticos meteorológicos de más de 4000 aeropuertos (mensajes METAR y TAF).

Los puntos amarillos y rojos representan las estaciones disponibles.

Ponga el ratón en el punto deseado para ver el nombre de la estación.

Haga clic para ver las observaciones y los pronósticos meteorológicos.

Para cambiar el mapa : haga clic en los botones verdes con una cruz de color negro para hacer un zoom, en el botón verde con un guión para alejar o en las flechas verdes para mapas adyacentes.


METAR-TAF: